»·PEaware :: N727LF KPSP-KONT

N727LF :: KPSP-KONT

FLIGHT INFORMATION

Flight Status: Arrived
Operator: Privately registered:
United States
More flights under this callsign
Pilot: Rhys Hurley (13243)
Aircraft: BEECH AIRCRAFT BARON
(BE58)
More flights by this aircraft type
Origin: KPSP Palm Springs Intl
United States
Destination: KONT Ontario Intl
United States
More flights between these airports :: More routes between these airports
Route: +
File this flight plan on PilotEdge
Remarks:
Altitude:
(Current/Filed)
5,000ft
Speed:
(Current/Filed)
130kts
Departed: 26-Dec-16 12:00 PM
Arrived: 26-Dec-16 12:23 PM
Distance/Time
Traveled:
57nm/0:23
Distance/Time
To Go:
Arrived

Flight Plot

Page will automatically refresh every two minutes.

Filed plans courtesy of Ian Elchitz and SimRoutes.com


Map Options




Map Legend


Flown Route
Filed Route
Departure Airport
Arrival Airport
Navaid (VOR, NDB)
Fix

Horizontal Profiles

Position Reports

Time Latitude Longitude Heading Altitude Ground
Speed
26-Dec-16 10:49 33.823608 -116.498557 53 399ft 0kts
26-Dec-16 10:51 33.823608 -116.498557 53 399ft 0kts
26-Dec-16 10:51 33.823608 -116.498557 53 399ft 0kts
26-Dec-16 10:56 33.823644 -116.498583 49 399ft 0kts
26-Dec-16 11:02 33.823596 -116.498532 49 398ft 0kts
26-Dec-16 11:03 33.823596 -116.498532 49 398ft 0kts
26-Dec-16 11:04 33.823596 -116.498532 49 398ft 0kts
26-Dec-16 11:05 33.823596 -116.498532 49 398ft 0kts
26-Dec-16 11:06 33.823596 -116.498532 49 398ft 0kts
26-Dec-16 11:07 33.823596 -116.498532 49 398ft 0kts
26-Dec-16 11:08 33.823603 -116.498522 49 398ft 0kts
26-Dec-16 11:09 33.823603 -116.498522 49 398ft 0kts
26-Dec-16 11:10 33.823603 -116.498522 49 398ft 0kts
26-Dec-16 11:11 33.823603 -116.498522 49 398ft 0kts
26-Dec-16 11:12 33.823603 -116.498522 49 398ft 0kts
26-Dec-16 11:13 33.823605 -116.498518 49 398ft 0kts
26-Dec-16 11:14 33.823605 -116.498518 49 398ft 0kts
26-Dec-16 11:15 33.823605 -116.498518 49 398ft 0kts
26-Dec-16 11:22 33.823608 -116.498543 49 399ft 0kts
26-Dec-16 11:23 33.823608 -116.498543 49 399ft 0kts
26-Dec-16 11:24 33.823608 -116.498543 49 399ft 0kts
26-Dec-16 11:25 33.823608 -116.498543 49 399ft 0kts
26-Dec-16 11:26 33.823609 -116.498543 49 399ft 0kts
26-Dec-16 11:27 33.823611 -116.498540 49 399ft 0kts
26-Dec-16 11:28 33.823611 -116.498540 49 399ft 0kts
26-Dec-16 11:29 33.823611 -116.498540 49 399ft 0kts
26-Dec-16 11:30 33.823611 -116.498540 49 399ft 0kts
26-Dec-16 11:31 33.823611 -116.498540 49 399ft 0kts
26-Dec-16 11:32 33.823611 -116.498540 49 399ft 0kts
26-Dec-16 11:33 33.823611 -116.498540 49 399ft 0kts
26-Dec-16 11:34 33.823611 -116.498540 49 399ft 0kts
26-Dec-16 11:35 33.823611 -116.498540 49 399ft 0kts
26-Dec-16 11:36 33.823611 -116.498540 49 399ft 0kts
26-Dec-16 11:37 33.823611 -116.498540 49 399ft 0kts
26-Dec-16 11:38 33.823615 -116.498534 49 399ft 0kts
26-Dec-16 11:39 33.824607 -116.499573 231 403ft 0kts
26-Dec-16 11:40 33.824607 -116.499573 231 403ft 0kts
26-Dec-16 11:41 33.824607 -116.499573 231 403ft 0kts
26-Dec-16 11:42 33.824607 -116.499573 231 403ft 0kts
26-Dec-16 11:43 33.824607 -116.499573 231 403ft 0kts
26-Dec-16 11:44 33.824607 -116.499573 231 403ft 0kts
26-Dec-16 11:45 33.824607 -116.499573 231 403ft 0kts
26-Dec-16 11:46 33.824607 -116.499573 231 403ft 0kts
26-Dec-16 11:47 33.824607 -116.499573 231 403ft 0kts
26-Dec-16 11:47 33.824607 -116.499573 231 403ft 0kts
26-Dec-16 11:48 33.824607 -116.499573 231 403ft 0kts
26-Dec-16 11:49 33.824607 -116.499573 231 403ft 0kts
26-Dec-16 11:50 33.824948 -116.500597 323 405ft 32kts
26-Dec-16 11:52 33.844781 -116.517393 323 916ft 104kts
26-Dec-16 11:53 33.869774 -116.539294 316 1821ft 113kts
26-Dec-16 11:54 33.887690 -116.567928 305 2807ft 106kts
26-Dec-16 11:55 33.899700 -116.600047 288 3741ft 107kts
26-Dec-16 11:56 33.906803 -116.635712 280 4546ft 113kts
26-Dec-16 11:57 33.911891 -116.675240 280 4519ft 136kts
26-Dec-16 11:58 33.918271 -116.726614 280 4477ft 159kts
26-Dec-16 11:59 33.920987 -116.780015 274 4440ft 162kts
26-Dec-16 12:00 33.925616 -116.836595 275 4521ft 171kts
26-Dec-16 12:01 33.929882 -116.895058 273 4513ft 177kts
26-Dec-16 12:02 33.940588 -116.952200 298 4513ft 174kts
26-Dec-16 12:03 33.962760 -117.004539 298 4518ft 176kts
26-Dec-16 12:04 33.992989 -117.050082 314 4523ft 173kts
26-Dec-16 12:05 34.019892 -117.097982 301 4527ft 172kts
26-Dec-16 12:06 34.041872 -117.148343 284 4541ft 169kts
26-Dec-16 12:07 34.049743 -117.202502 278 4532ft 161kts
26-Dec-16 12:08 34.060643 -117.255347 293 4428ft 167kts
26-Dec-16 12:09 34.065031 -117.309612 260 4410ft 166kts
26-Dec-16 12:10 34.057220 -117.364182 266 4333ft 158kts
26-Dec-16 12:11 34.054485 -117.418526 268 4086ft 167kts
26-Dec-16 12:12 34.053788 -117.476084 272 3236ft 164kts
26-Dec-16 12:13 34.054569 -117.526370 270 2082ft 134kts
26-Dec-16 12:14 34.054814 -117.566820 271 1314ft 99kts
26-Dec-16 12:15 34.054952 -117.592181 266 917ft 24kts
26-Dec-16 12:16 34.054508 -117.594244 233 916ft 0kts
26-Dec-16 12:17 34.053825 -117.599820 271 911ft 43kts
26-Dec-16 12:18 34.053772 -117.611694 269 921ft 18kts

Navigation Log

Ident Type Via Name
1. KPSP Airport Direct Palm Springs Intl
2. KONT Airport Direct Ontario Intl